Time;durP1;ratioP1;P1;durP2;ratioP2;P2;SDS_P1;SDS_P2;PMS_P1;PMS_P2;Temp;Humidity;BMP_temperature;BMP_pressure;BME280_temperature;BME280_humidity;BME280_pressure;Samples;Min_cycle;Max_cycle;Signal;HPM_P1;HPM_P2
2022/11/11 00:00:03;;;;;;;8.50;7.60;;;9.60;90.70;;;;;;5055361;28;20429;-45
2022/11/11 00:02:29;;;;;;;7.97;7.17;;;9.50;90.60;;;;;;5055887;28;20181;-43
2022/11/11 00:04:54;;;;;;;10.60;7.80;;;9.50;90.60;;;;;;5056986;28;20421;-45
2022/11/11 00:07:20;;;;;;;9.90;7.70;;;9.40;90.60;;;;;;5056631;28;20185;-43
2022/11/11 00:09:45;;;;;;;14.23;8.77;;;9.40;90.60;;;;;;5056707;28;20281;-43
2022/11/11 00:12:11;;;;;;;9.00;8.00;;;9.30;90.60;;;;;;5059821;28;20560;-44
2022/11/11 00:14:36;;;;;;;9.40;8.47;;;9.30;90.70;;;;;;5059700;28;20592;-45
2022/11/11 00:25:16;;;;;;;10.43;8.83;;;9.10;90.50;;;;;;5058054;28;20411;-45
2022/11/11 00:27:42;;;;;;;8.50;7.57;;;9.00;90.40;;;;;;5057968;28;20435;-45
2022/11/11 00:30:08;;;;;;;8.10;7.30;;;9.00;90.40;;;;;;5057552;28;20424;-45
2022/11/11 00:32:34;;;;;;;8.80;7.30;;;9.00;90.40;;;;;;5059269;28;20587;-43
2022/11/11 00:37:47;;;;;;;6.97;6.27;;;8.90;90.70;;;;;;5044725;28;20188;-44
2022/11/11 00:40:13;;;;;;;6.90;6.30;;;8.90;90.40;;;;;;5059686;28;20445;-44
2022/11/11 00:42:39;;;;;;;7.83;6.90;;;8.80;90.40;;;;;;5059876;28;20429;-43
2022/11/11 00:45:06;;;;;;;7.20;6.50;;;8.80;90.40;;;;;;5041849;28;20436;-43
2022/11/11 00:53:06;;;;;;;6.37;5.77;;;8.70;90.40;;;;;;5079280;28;20482;-43
2022/11/11 00:55:32;;;;;;;7.77;5.50;;;8.70;90.80;;;;;;5062236;28;20416;-42
2022/11/11 00:57:58;;;;;;;7.50;6.00;;;8.70;90.50;;;;;;5079472;28;20809;-43
2022/11/11 01:00:23;;;;;;;10.37;5.90;;;8.60;90.50;;;;;;5079136;28;20468;-45
2022/11/11 01:02:49;;;;;;;7.50;5.40;;;8.60;90.50;;;;;;5079144;28;20182;-43
2022/11/11 01:05:14;;;;;;;6.60;5.10;;;8.60;90.60;;;;;;5079263;28;20186;-42
2022/11/11 01:07:40;;;;;;;6.57;5.87;;;8.60;90.60;;;;;;5062158;28;20193;-43
2022/11/11 01:10:06;;;;;;;6.80;5.13;;;8.60;90.60;;;;;;5079470;28;20216;-44
2022/11/11 01:12:31;;;;;;;5.93;5.00;;;8.50;90.60;;;;;;5061192;28;20211;-43
2022/11/11 01:14:57;;;;;;;4.70;4.27;;;8.50;90.60;;;;;;5079294;28;20423;-43
2022/11/11 01:17:23;;;;;;;6.13;5.53;;;8.50;90.70;;;;;;5078575;28;20548;-45
2022/11/11 01:19:48;;;;;;;7.53;5.10;;;8.50;90.70;;;;;;5078579;28;20220;-44
2022/11/11 01:22:14;;;;;;;6.07;5.10;;;8.50;90.80;;;;;;5076981;28;20192;-42
2022/11/11 01:24:39;;;;;;;6.47;5.70;;;8.40;90.80;;;;;;5078765;28;20275;-45
2022/11/11 01:27:05;;;;;;;6.10;4.93;;;8.40;90.80;;;;;;5077341;28;20193;-44
2022/11/11 01:29:31;;;;;;;5.93;4.60;;;8.40;90.90;;;;;;5078559;28;20213;-44
2022/11/11 01:31:56;;;;;;;6.73;4.63;;;8.40;90.80;;;;;;5079377;28;20184;-46
2022/11/11 01:34:22;;;;;;;4.50;4.10;;;8.30;90.80;;;;;;5079408;28;20533;-45
2022/11/11 01:36:48;;;;;;;5.10;4.60;;;8.30;90.80;;;;;;5079482;28;20582;-45
2022/11/11 01:39:13;;;;;;;7.40;4.50;;;8.30;90.80;;;;;;5079265;28;20181;-47
2022/11/11 01:41:39;;;;;;;6.67;4.30;;;8.30;90.90;;;;;;5078778;28;20183;-43
2022/11/11 01:44:10;;;;;;;4.67;4.17;;;8.20;90.80;;;;;;5078812;28;20562;-42
2022/11/11 01:46:48;;;;;;;5.87;4.17;;;8.20;90.80;;;;;;5078421;28;20183;-44
2022/11/11 01:49:21;;;;;;;5.70;4.47;;;8.20;90.80;;;;;;5079177;28;20762;-44
2022/11/11 01:52:07;;;;;;;6.33;5.50;;;8.10;90.70;;;;;;5061130;28;20428;-44
2022/11/11 01:55:03;;;;;;;6.70;4.87;;;8.10;90.70;;;;;;5078993;28;20729;-43
2022/11/11 01:57:43;;;;;;;4.93;4.30;;;8.10;90.70;;;;;;5062569;28;20679;-45
2022/11/11 02:00:13;;;;;;;6.70;3.97;;;8.10;90.80;;;;;;5078173;28;20455;-44
2022/11/11 02:02:56;;;;;;;6.83;5.03;;;8.10;90.80;;;;;;5078807;28;20419;-42
2022/11/11 02:05:42;;;;;;;5.47;4.50;;;8.00;90.80;;;;;;5078319;28;20770;-44
2022/11/11 02:08:30;;;;;;;7.17;4.70;;;8.00;90.90;;;;;;5078469;28;20463;-44
2022/11/11 02:11:10;;;;;;;5.80;4.27;;;8.00;90.90;;;;;;5077969;28;20433;-47
2022/11/11 02:16:24;;;;;;;4.97;4.40;;;8.00;90.90;;;;;;5077459;28;20421;-44
2022/11/11 02:18:50;;;;;;;6.97;4.60;;;7.90;90.90;;;;;;5078497;28;20526;-44
2022/11/11 02:21:45;;;;;;;6.00;4.40;;;7.90;90.90;;;;;;5078567;28;20303;-45
2022/11/11 02:24:15;;;;;;;5.70;4.93;;;7.90;90.90;;;;;;5073104;28;20751;-41
2022/11/11 02:26:42;;;;;;;6.00;4.63;;;7.80;90.90;;;;;;5060869;28;20526;-44
2022/11/11 02:29:11;;;;;;;5.70;4.73;;;7.80;90.90;;;;;;5076091;28;20878;-45
2022/11/11 02:31:37;;;;;;;5.30;4.80;;;7.80;90.90;;;;;;5076909;28;20430;-43
2022/11/11 02:34:02;;;;;;;6.80;4.40;;;7.80;90.90;;;;;;5078112;28;20415;-42
2022/11/11 02:36:28;;;;;;;5.73;4.37;;;7.80;90.90;;;;;;5078100;28;20540;-44
2022/11/11 02:38:54;;;;;;;5.83;5.23;;;7.80;91.00;;;;;;5077649;28;20188;-45
2022/11/11 02:44:03;;;;;;;5.37;4.87;;;7.70;90.90;;;;;;5077664;28;20244;-44
2022/11/11 02:46:29;;;;;;;5.63;4.43;;;7.70;90.90;;;;;;5078151;28;20439;-44
2022/11/11 02:48:55;;;;;;;5.07;4.17;;;7.70;90.90;;;;;;5077237;28;20577;-44
2022/11/11 02:51:20;;;;;;;7.73;4.63;;;7.70;91.00;;;;;;5078194;28;20219;-44
2022/11/11 02:53:46;;;;;;;6.43;5.10;;;7.60;90.90;;;;;;5085586;28;20241;-46
2022/11/11 02:57:05;;;;;;;6.40;4.87;;;7.60;91.00;;;;;;5097895;28;20424;-44
2022/11/11 02:58:57;;;;;;;4.83;4.40;;;7.60;91.00;;;;;;5097851;28;20181;-43
2022/11/11 03:01:23;;;;;;;5.50;5.00;;;7.60;91.00;;;;;;5098098;28;20529;-44
2022/11/11 03:03:48;;;;;;;5.80;4.67;;;7.60;91.00;;;;;;5096956;28;20598;-44
2022/11/11 03:06:14;;;;;;;4.80;4.30;;;7.50;90.90;;;;;;5096346;28;20533;-44
2022/11/11 03:08:41;;;;;;;8.87;4.50;;;7.50;90.90;;;;;;5096829;28;20211;-43
2022/11/11 03:11:06;;;;;;;5.70;4.27;;;7.50;90.90;;;;;;5096825;28;20183;-44
2022/11/11 03:13:32;;;;;;;5.27;4.50;;;7.50;90.90;;;;;;5080480;28;20443;-43
2022/11/11 03:15:57;;;;;;;4.57;4.13;;;7.50;90.90;;;;;;5077993;28;20557;-45
2022/11/11 03:18:23;;;;;;;5.67;4.27;;;7.50;90.90;;;;;;5077836;28;20182;-45
2022/11/11 03:21:04;;;;;;;6.47;4.43;;;7.40;90.80;;;;;;5077268;28;20181;-45
2022/11/11 03:23:30;;;;;;;5.00;4.23;;;7.40;90.90;;;;;;5079068;28;20177;-44
2022/11/11 03:25:55;;;;;;;6.33;4.53;;;7.40;90.90;;;;;;5095815;28;20446;-46
2022/11/11 03:28:23;;;;;;;4.67;4.20;;;7.40;90.90;;;;;;5092637;28;20200;-46
2022/11/11 03:30:49;;;;;;;6.07;4.60;;;7.30;90.80;;;;;;5097258;28;20172;-45
2022/11/11 03:33:16;;;;;;;5.17;4.70;;;7.30;90.80;;;;;;5097252;28;20487;-44
2022/11/11 03:35:42;;;;;;;7.27;4.77;;;7.30;90.90;;;;;;5097676;28;20425;-44
2022/11/11 03:38:23;;;;;;;5.57;4.43;;;7.30;90.90;;;;;;5097299;28;20410;-44
2022/11/11 03:40:55;;;;;;;5.33;4.83;;;7.30;90.90;;;;;;5097025;28;20169;-44
2022/11/11 03:43:25;;;;;;;6.30;5.70;;;7.30;90.90;;;;;;5096981;28;20745;-45
2022/11/11 03:45:53;;;;;;;6.43;5.83;;;7.30;91.00;;;;;;5065259;28;20430;-44
2022/11/11 03:48:18;;;;;;;7.20;5.90;;;7.30;91.00;;;;;;5101107;28;20473;-45
2022/11/11 03:50:46;;;;;;;5.60;4.97;;;7.30;91.00;;;;;;5101154;28;20427;-44
2022/11/11 03:53:13;;;;;;;5.90;5.10;;;7.20;91.00;;;;;;5082170;28;20225;-44
2022/11/11 03:55:40;;;;;;;5.50;4.53;;;7.20;91.10;;;;;;5050566;28;20427;-43
2022/11/11 03:58:06;;;;;;;6.30;5.13;;;7.20;91.10;;;;;;5092322;28;20431;-45
2022/11/11 04:00:32;;;;;;;7.90;5.60;;;7.20;91.20;;;;;;5080324;28;20415;-44
2022/11/11 04:11:28;;;;;;;6.10;5.50;;;7.20;91.40;;;;;;5079983;28;20426;-45
2022/11/11 04:16:39;;;;;;;6.13;4.20;;;7.20;91.40;;;;;;5079378;28;20540;-44
2022/11/11 04:21:49;;;;;;;5.80;5.17;;;7.20;91.50;;;;;;5079213;28;20220;-46
2022/11/11 04:27:04;;;;;;;5.30;4.77;;;7.10;91.50;;;;;;5077434;28;20187;-43
2022/11/11 04:29:30;;;;;;;4.70;4.30;;;7.10;91.50;;;;;;5077378;28;20629;-43
2022/11/11 04:34:52;;;;;;;6.67;4.30;;;7.10;91.60;;;;;;5078013;28;20864;-44
2022/11/11 04:37:18;;;;;;;5.30;4.80;;;7.10;91.50;;;;;;5079144;28;20542;-44
2022/11/11 04:42:30;;;;;;;6.00;4.87;;;7.00;91.50;;;;;;5078467;28;20481;-45
2022/11/11 04:47:56;;;;;;;5.27;4.77;;;7.00;91.40;;;;;;5077574;28;20415;-46
2022/11/11 04:50:23;;;;;;;7.17;5.80;;;7.00;91.40;;;;;;5079437;28;20416;-43
2022/11/11 04:52:48;;;;;;;6.93;4.77;;;6.90;91.40;;;;;;5079140;28;20412;-45
2022/11/11 04:57:59;;;;;;;5.80;4.90;;;6.90;91.40;;;;;;5076682;28;20243;-43
2022/11/11 05:00:24;;;;;;;5.30;4.80;;;6.90;91.40;;;;;;5079603;28;20408;-43
2022/11/11 05:11:05;;;;;;;6.73;5.17;;;6.80;91.40;;;;;;5086550;28;20429;-44
2022/11/11 05:21:47;;;;;;;6.73;5.70;;;6.80;91.50;;;;;;5081830;28;20538;-44
2022/11/11 05:27:00;;;;;;;7.07;5.80;;;6.80;91.60;;;;;;5076840;28;20573;-44
2022/11/11 05:29:25;;;;;;;5.80;5.10;;;6.80;91.60;;;;;;5082150;28;20519;-46
2022/11/11 05:31:51;;;;;;;8.03;7.23;;;6.80;91.60;;;;;;5083973;28;20215;-44
2022/11/11 05:34:17;;;;;;;6.67;5.70;;;6.70;91.60;;;;;;5077093;28;20181;-44
2022/11/11 05:36:42;;;;;;;5.33;4.80;;;6.70;91.90;;;;;;5076341;28;20179;-43
2022/11/11 05:39:08;;;;;;;7.67;6.87;;;6.70;91.60;;;;;;5078459;28;20285;-45
2022/11/11 05:41:33;;;;;;;6.97;5.60;;;6.70;91.60;;;;;;5058721;28;20181;-45
2022/11/11 05:43:59;;;;;;;6.93;6.20;;;6.70;91.60;;;;;;5076239;28;20598;-46
2022/11/11 05:46:24;;;;;;;7.37;6.17;;;6.70;91.70;;;;;;5078265;28;20272;-48
2022/11/11 05:51:34;;;;;;;6.43;5.80;;;6.70;91.70;;;;;;5076794;28;20259;-45
2022/11/11 05:54:00;;;;;;;8.60;6.00;;;6.60;91.90;;;;;;5075696;28;20760;-43
2022/11/11 05:56:26;;;;;;;6.13;5.50;;;6.60;91.60;;;;;;5076607;28;20201;-45
2022/11/11 05:58:51;;;;;;;5.70;5.10;;;6.60;91.60;;;;;;5058800;28;20220;-43
2022/11/11 06:01:17;;;;;;;5.73;4.70;;;6.60;91.70;;;;;;5075074;28;20215;-43
2022/11/11 06:03:43;;;;;;;7.00;5.63;;;6.60;91.70;;;;;;5074979;28;20532;-45
2022/11/11 06:06:09;;;;;;;5.77;5.17;;;6.60;91.70;;;;;;5073148;28;20173;-42
2022/11/11 06:08:35;;;;;;;8.47;6.33;;;6.60;91.70;;;;;;5073569;28;20205;-42
2022/11/11 06:11:00;;;;;;;6.97;5.97;;;6.60;91.70;;;;;;5072082;28;20450;-44
2022/11/11 06:13:27;;;;;;;7.60;6.43;;;6.50;91.80;;;;;;5084703;28;20183;-43
2022/11/11 06:15:56;;;;;;;7.47;6.63;;;6.40;91.90;;;;;;5077741;28;20189;-46
2022/11/11 06:18:22;;;;;;;7.73;6.17;;;6.30;92.10;;;;;;5096228;28;20514;-43
2022/11/11 06:20:55;;;;;;;6.90;6.20;;;6.30;92.20;;;;;;5074793;28;20530;-42
2022/11/11 06:23:22;;;;;;;8.10;6.20;;;6.30;92.40;;;;;;5092024;28;20173;-44
2022/11/11 06:28:32;;;;;;;8.67;6.20;;;6.20;92.70;;;;;;5093300;28;20519;-43
2022/11/11 06:31:00;;;;;;;7.50;6.00;;;6.20;92.90;;;;;;5087189;28;20469;-44
2022/11/11 06:33:26;;;;;;;6.13;5.50;;;6.20;93.10;;;;;;5083959;28;20507;-44
2022/11/11 06:35:52;;;;;;;6.80;5.77;;;6.10;93.20;;;;;;5055953;28;21005;-44
2022/11/11 06:38:17;;;;;;;7.87;5.50;;;6.10;93.30;;;;;;5088461;28;20263;-43
2022/11/11 06:40:43;;;;;;;6.93;5.70;;;6.20;93.50;;;;;;5094803;28;20438;-43
2022/11/11 06:43:09;;;;;;;5.50;5.00;;;6.20;93.50;;;;;;5093975;28;20574;-42
2022/11/11 06:45:35;;;;;;;6.33;5.73;;;6.30;93.60;;;;;;5089377;28;20423;-42
2022/11/11 06:48:02;;;;;;;11.40;7.67;;;6.30;93.50;;;;;;5090702;28;20407;-44
2022/11/11 06:50:28;;;;;;;6.70;6.00;;;6.30;93.50;;;;;;5089080;28;20874;-44
2022/11/11 06:52:54;;;;;;;8.73;7.10;;;6.40;93.40;;;;;;5091319;28;20415;-43
2022/11/11 06:55:20;;;;;;;11.40;7.00;;;6.40;93.40;;;;;;5096097;28;20515;-44
2022/11/11 06:57:45;;;;;;;8.97;7.93;;;6.50;93.40;;;;;;5094593;28;20406;-43
2022/11/11 07:00:12;;;;;;;11.10;8.13;;;6.60;93.40;;;;;;5093730;28;20173;-44
2022/11/11 07:02:37;;;;;;;8.03;7.20;;;6.70;93.40;;;;;;5092912;28;20181;-42
2022/11/11 07:05:03;;;;;;;8.50;7.80;;;6.80;93.30;;;;;;5093507;28;20415;-42
2022/11/11 07:07:29;;;;;;;9.17;7.73;;;6.90;93.20;;;;;;5074790;28;20261;-42
2022/11/11 07:09:55;;;;;;;8.60;7.73;;;7.00;93.10;;;;;;5092253;28;20488;-42
2022/11/11 07:12:21;;;;;;;9.73;7.83;;;7.10;93.00;;;;;;5091273;28;20181;-43
2022/11/11 07:14:47;;;;;;;9.50;7.10;;;7.20;93.00;;;;;;5091580;28;20207;-43
2022/11/11 07:17:13;;;;;;;9.80;8.53;;;7.30;92.90;;;;;;5093415;28;20790;-42
2022/11/11 07:19:38;;;;;;;10.00;7.80;;;7.50;92.80;;;;;;5091618;28;20430;-46
2022/11/11 07:22:04;;;;;;;8.20;7.37;;;7.60;92.70;;;;;;5073881;28;20249;-41
2022/11/11 07:24:30;;;;;;;12.77;7.67;;;7.70;92.60;;;;;;5092626;28;20188;-43
2022/11/11 07:26:55;;;;;;;9.00;7.10;;;7.90;92.60;;;;;;5092825;28;20185;-44
2022/11/11 07:29:21;;;;;;;8.20;7.07;;;8.10;92.40;;;;;;5091777;28;20281;-43
2022/11/11 07:31:47;;;;;;;9.17;7.77;;;8.30;92.30;;;;;;5074544;28;20184;-42
2022/11/11 07:34:13;;;;;;;9.23;7.50;;;8.50;92.20;;;;;;5091247;28;20693;-44
2022/11/11 07:36:39;;;;;;;7.50;6.60;;;8.70;92.10;;;;;;5090273;28;20177;-43
2022/11/11 07:39:05;;;;;;;9.17;6.57;;;8.90;91.90;;;;;;5091146;28;20173;-43
2022/11/11 07:41:30;;;;;;;7.03;6.43;;;9.10;91.80;;;;;;5091328;28;20895;-45
2022/11/11 07:43:56;;;;;;;7.30;6.57;;;9.30;91.60;;;;;;5091838;28;20554;-43
2022/11/11 07:46:22;;;;;;;7.50;6.80;;;9.50;91.50;;;;;;5091267;28;20269;-45
2022/11/11 07:48:47;;;;;;;7.17;6.47;;;9.70;91.30;;;;;;5092781;28;20207;-44
2022/11/11 07:51:13;;;;;;;10.87;7.40;;;9.90;91.20;;;;;;5077684;28;20215;-43
2022/11/11 07:53:39;;;;;;;7.30;6.57;;;10.10;90.50;;;;;;5093840;28;20243;-42
2022/11/11 07:56:05;;;;;;;10.70;7.40;;;10.30;90.40;;;;;;5076978;28;20258;-42
2022/11/11 07:58:32;;;;;;;7.73;6.83;;;10.60;90.40;;;;;;5077336;28;20176;-42
2022/11/11 08:01:00;;;;;;;7.70;6.93;;;10.80;90.20;;;;;;5094475;28;20204;-43
2022/11/11 08:03:26;;;;;;;7.40;6.70;;;11.10;90.00;;;;;;5094409;28;20630;-43
2022/11/11 08:05:51;;;;;;;8.10;6.77;;;11.40;89.70;;;;;;5095268;28;20472;-42
2022/11/11 08:08:17;;;;;;;8.87;7.40;;;11.70;89.40;;;;;;5095687;28;20172;-45
2022/11/11 08:10:42;;;;;;;7.63;6.60;;;12.00;88.80;;;;;;5095074;28;20174;-44
2022/11/11 08:15:56;;;;;;;7.53;6.83;;;12.70;87.00;;;;;;5095814;28;20166;-42
2022/11/11 08:18:22;;;;;;;7.37;6.67;;;13.10;86.30;;;;;;5095455;28;20418;-46
2022/11/11 08:20:48;;;;;;;7.00;6.30;;;13.50;85.70;;;;;;5094745;28;20989;-44
2022/11/11 08:23:16;;;;;;;8.30;5.93;;;13.90;84.80;;;;;;5091830;28;20181;-43
2022/11/11 08:25:41;;;;;;;6.43;5.83;;;14.40;83.90;;;;;;5091674;28;20558;-45
2022/11/11 08:28:07;;;;;;;7.27;5.90;;;14.80;82.70;;;;;;5090398;28;20412;-44
2022/11/11 08:30:32;;;;;;;6.37;5.40;;;15.20;81.90;;;;;;5090758;28;20178;-43
2022/11/11 08:33:03;;;;;;;8.37;5.43;;;15.60;81.00;;;;;;5093943;28;20169;-44
2022/11/11 08:35:29;;;;;;;5.90;4.77;;;16.10;80.10;;;;;;5092612;28;20220;-45
2022/11/11 08:37:55;;;;;;;5.23;4.67;;;16.50;78.80;;;;;;5089432;28;20409;-43
2022/11/11 08:40:21;;;;;;;5.27;4.40;;;16.70;77.90;;;;;;5098943;28;20445;-43
2022/11/11 08:42:47;;;;;;;7.83;4.90;;;17.10;77.20;;;;;;5098720;28;20179;-44
2022/11/11 08:45:12;;;;;;;3.90;3.50;;;17.40;76.00;;;;;;5097776;28;20825;-47
2022/11/11 08:47:38;;;;;;;5.67;4.47;;;17.60;74.90;;;;;;5096707;28;20299;-46
2022/11/11 08:50:06;;;;;;;5.93;4.23;;;18.00;73.40;;;;;;5094881;28;20467;-44
2022/11/11 08:52:32;;;;;;;4.13;3.73;;;18.10;72.50;;;;;;5095666;28;20491;-47
2022/11/11 08:54:59;;;;;;;7.93;4.50;;;18.30;71.90;;;;;;5097128;28;20476;-43
2022/11/11 08:57:25;;;;;;;4.30;3.60;;;18.50;71.40;;;;;;5077218;28;20577;-44
2022/11/11 08:59:51;;;;;;;5.10;3.50;;;18.80;69.90;;;;;;5096357;28;20523;-44
2022/11/11 09:02:16;;;;;;;5.33;3.50;;;19.10;68.70;;;;;;5097337;28;20454;-43
2022/11/11 09:04:42;;;;;;;3.20;2.77;;;19.40;67.40;;;;;;5096885;28;20175;-44
2022/11/11 09:07:09;;;;;;;4.77;3.70;;;19.60;66.30;;;;;;5097209;28;20454;-45
2022/11/11 09:09:34;;;;;;;3.57;2.67;;;19.80;65.00;;;;;;5095710;28;20260;-45
2022/11/11 09:12:00;;;;;;;3.37;3.07;;;19.90;63.90;;;;;;5094773;28;20775;-43
2022/11/11 09:14:26;;;;;;;3.60;2.77;;;20.10;63.40;;;;;;5077558;28;20326;-43
2022/11/11 09:16:52;;;;;;;5.20;3.43;;;20.40;63.20;;;;;;5095995;28;20425;-45
2022/11/11 09:19:17;;;;;;;3.63;3.20;;;21.00;61.10;;;;;;5095399;28;20179;-46
2022/11/11 09:21:43;;;;;;;3.17;2.60;;;21.80;59.50;;;;;;5094491;28;20192;-43
2022/11/11 09:24:08;;;;;;;2.73;2.23;;;22.90;58.00;;;;;;5097832;28;20172;-42
2022/11/11 09:26:34;;;;;;;2.83;2.63;;;24.00;56.70;;;;;;5097181;28;20560;-43
2022/11/11 09:29:00;;;;;;;2.93;2.23;;;25.20;55.10;;;;;;5097102;28;20209;-43
2022/11/11 09:31:26;;;;;;;3.67;3.23;;;26.50;52.60;;;;;;5096532;28;20192;-43
2022/11/11 09:33:51;;;;;;;2.90;2.30;;;27.80;49.70;;;;;;5096952;28;20171;-43
2022/11/11 09:36:17;;;;;;;5.07;3.33;;;28.90;47.10;;;;;;5096524;28;20432;-44
2022/11/11 09:38:43;;;;;;;4.07;2.87;;;29.90;44.30;;;;;;5094735;28;20408;-45
2022/11/11 09:41:14;;;;;;;3.10;2.80;;;30.60;42.60;;;;;;5095527;28;20499;-45
2022/11/11 09:43:58;;;;;;;7.23;2.70;;;31.30;41.20;;;;;;5094154;28;20178;-55
2022/11/11 09:46:33;;;;;;;3.70;2.60;;;31.60;40.10;;;;;;5095027;28;20419;-45
2022/11/11 09:49:17;;;;;;;3.20;2.17;;;31.70;39.30;;;;;;5093903;28;20542;-44
2022/11/11 09:52:00;;;;;;;3.03;2.73;;;32.10;38.60;;;;;;5093527;28;20421;-47
2022/11/11 09:54:53;;;;;;;2.40;2.20;;;32.20;38.50;;;;;;5093689;28;20445;-43
2022/11/11 09:57:46;;;;;;;3.70;2.47;;;32.10;38.70;;;;;;5095059;28;20454;-46
2022/11/11 10:00:22;;;;;;;2.33;1.90;;;32.50;38.10;;;;;;5087285;28;20428;-43
2022/11/11 10:02:54;;;;;;;3.17;1.87;;;32.80;37.70;;;;;;5096506;28;20406;-46
2022/11/11 10:05:21;;;;;;;9.40;2.40;;;33.30;37.30;;;;;;5098099;28;20448;-44
2022/11/11 10:07:52;;;;;;;2.70;1.60;;;32.80;37.10;;;;;;5098112;28;20406;-45
2022/11/11 10:10:42;;;;;;;2.47;2.00;;;32.10;37.00;;;;;;5097549;28;20741;-45
2022/11/11 10:13:16;;;;;;;2.47;2.07;;;31.90;35.70;;;;;;5098526;28;20420;-46
2022/11/11 10:15:59;;;;;;;3.23;2.00;;;31.90;35.50;;;;;;5096381;28;20408;-46
2022/11/11 10:18:28;;;;;;;2.70;2.17;;;32.00;35.10;;;;;;5095827;28;20878;-43
2022/11/11 10:20:55;;;;;;;4.63;2.53;;;31.60;35.80;;;;;;5095371;28;20546;-43
2022/11/11 10:23:42;;;;;;;2.00;1.80;;;31.20;36.10;;;;;;5096066;28;20419;-45
2022/11/11 10:26:35;;;;;;;2.43;1.80;;;30.80;36.90;;;;;;5096039;28;20452;-48
2022/11/11 10:29:03;;;;;;;3.50;1.90;;;30.80;36.90;;;;;;5091208;28;20746;-42
2022/11/11 10:31:28;;;;;;;2.27;2.00;;;31.40;37.10;;;;;;5094587;28;20496;-44
2022/11/11 10:34:11;;;;;;;2.30;1.70;;;31.60;36.70;;;;;;5094095;28;20396;-42
2022/11/11 10:36:57;;;;;;;2.97;2.20;;;31.60;37.00;;;;;;5076334;28;20274;-45
2022/11/11 10:39:53;;;;;;;2.63;1.70;;;31.90;36.70;;;;;;5075477;28;20400;-43
2022/11/11 10:42:19;;;;;;;2.20;1.70;;;32.10;35.60;;;;;;5091667;28;20415;-44
2022/11/11 10:44:45;;;;;;;1.90;1.63;;;32.20;36.10;;;;;;5095663;28;20386;-45
2022/11/11 10:47:31;;;;;;;2.13;1.70;;;32.60;36.40;;;;;;5093238;28;20184;-48
2022/11/11 10:50:14;;;;;;;2.33;1.70;;;32.80;36.40;;;;;;5052899;28;20812;-44
2022/11/11 10:52:45;;;;;;;2.37;1.60;;;33.00;34.80;;;;;;5093258;28;20416;-45
2022/11/11 10:55:17;;;;;;;2.13;1.60;;;33.40;35.20;;;;;;5111595;28;20444;-43
2022/11/11 10:57:58;;;;;;;1.73;1.30;;;34.40;35.10;;;;;;5097572;28;20436;-49
2022/11/11 11:00:24;;;;;;;4.03;1.67;;;35.50;34.00;;;;;;5096085;28;20387;-43
2022/11/11 11:03:35;;;;;;;2.20;1.77;;;36.80;33.30;;;;;;5109103;28;20412;-43
2022/11/11 11:06:12;;;;;;;2.10;1.60;;;38.10;32.20;;;;;;5069766;28;20202;-43
2022/11/11 11:08:43;;;;;;;2.20;1.90;;;39.40;31.10;;;;;;5074362;28;20526;-43
2022/11/11 11:11:44;;;;;;;3.20;1.80;;;40.00;30.00;;;;;;5056602;28;20428;-42
2022/11/11 11:14:16;;;;;;;1.93;1.50;;;39.10;29.20;;;;;;5056707;28;20418;-43
2022/11/11 11:16:49;;;;;;;2.37;1.47;;;38.80;29.80;;;;;;5057074;28;20446;-44
2022/11/11 11:19:18;;;;;;;2.23;1.53;;;38.10;30.10;;;;;;5057219;28;20475;-43
2022/11/11 11:21:51;;;;;;;2.03;1.47;;;37.60;30.50;;;;;;5075194;28;20514;-49
2022/11/11 11:24:36;;;;;;;1.53;1.43;;;37.50;30.70;;;;;;5073860;28;20471;-43
2022/11/11 11:27:06;;;;;;;3.00;1.47;;;37.60;30.60;;;;;;5076574;28;20775;-42
2022/11/11 11:29:38;;;;;;;1.97;1.63;;;37.70;30.30;;;;;;5076341;28;20469;-46
2022/11/11 11:32:17;;;;;;;2.40;1.77;;;37.90;30.10;;;;;;5074572;28;20520;-46
2022/11/11 11:34:50;;;;;;;1.67;1.27;;;38.10;30.00;;;;;;5075695;28;20463;-43
2022/11/11 11:37:17;;;;;;;1.60;1.30;;;38.20;30.00;;;;;;5076496;28;20893;-42
2022/11/11 11:39:43;;;;;;;2.03;1.70;;;37.80;30.10;;;;;;5058471;28;20712;-42
2022/11/11 11:42:50;;;;;;;3.10;1.60;;;37.20;30.60;;;;;;5075273;28;20402;-42
2022/11/11 11:45:30;;;;;;;2.43;1.53;;;36.60;30.60;;;;;;5074964;28;20196;-42
2022/11/11 11:48:14;;;;;;;3.03;1.50;;;36.00;30.80;;;;;;5058085;28;20395;-48
2022/11/11 11:50:49;;;;;;;1.60;1.30;;;35.50;31.60;;;;;;5057853;28;20473;-43
2022/11/11 11:53:50;;;;;;;1.50;1.40;;;35.20;31.40;;;;;;5074983;28;20412;-45
2022/11/11 11:56:35;;;;;;;2.90;1.50;;;35.10;31.50;;;;;;5074351;28;20520;-46
2022/11/11 11:59:09;;;;;;;2.00;1.30;;;35.30;31.70;;;;;;5076088;28;20387;-43
2022/11/11 12:01:42;;;;;;;2.17;1.43;;;35.50;31.90;;;;;;5076131;28;20423;-43
2022/11/11 12:04:29;;;;;;;1.63;1.27;;;35.50;31.90;;;;;;5074353;28;20718;-42
2022/11/11 12:07:25;;;;;;;1.53;1.40;;;35.50;31.90;;;;;;5057537;28;20473;-43
2022/11/11 12:10:28;;;;;;;2.10;1.37;;;35.60;31.50;;;;;;5075851;28;20471;-52
2022/11/11 12:13:28;;;;;;;2.43;1.30;;;35.70;31.20;;;;;;5076696;28;20703;-45
2022/11/11 12:16:12;;;;;;;2.60;1.90;;;35.80;31.30;;;;;;5060858;28;20485;-45
2022/11/11 12:18:53;;;;;;;1.87;1.40;;;35.80;31.30;;;;;;5078345;28;20390;-44
2022/11/11 12:21:23;;;;;;;2.30;1.57;;;36.10;31.40;;;;;;5069212;28;20957;-43
2022/11/11 12:24:02;;;;;;;2.20;1.70;;;36.50;31.20;;;;;;5078037;28;20840;-43
2022/11/11 12:26:27;;;;;;;2.70;1.60;;;37.20;30.80;;;;;;5075645;28;20441;-44
2022/11/11 12:29:14;;;;;;;1.53;1.30;;;37.60;30.30;;;;;;5075428;28;20469;-42
2022/11/11 12:31:45;;;;;;;2.73;1.70;;;38.00;30.00;;;;;;5040400;28;20199;-45
2022/11/11 12:34:21;;;;;;;2.20;1.53;;;38.60;29.80;;;;;;5074610;28;20815;-46
2022/11/11 12:36:52;;;;;;;2.07;1.40;;;39.10;29.30;;;;;;5077034;28;20430;-45
2022/11/11 12:39:33;;;;;;;1.50;1.40;;;39.30;29.00;;;;;;5075599;28;20813;-43
2022/11/11 12:42:21;;;;;;;2.00;1.60;;;39.60;29.00;;;;;;5057865;28;20443;-44
2022/11/11 12:45:08;;;;;;;1.50;1.37;;;39.80;29.00;;;;;;5057444;28;20428;-44
2022/11/11 12:47:46;;;;;;;2.30;1.57;;;40.10;28.70;;;;;;5075630;28;20431;-42
2022/11/11 12:50:20;;;;;;;1.87;1.40;;;40.80;28.20;;;;;;5076049;28;20454;-42
2022/11/11 12:52:49;;;;;;;1.70;1.60;;;40.90;28.10;;;;;;5076929;28;20408;-45
2022/11/11 12:55:39;;;;;;;1.73;1.40;;;40.40;28.30;;;;;;5056101;28;20603;-46
2022/11/11 12:58:20;;;;;;;1.50;1.30;;;39.10;28.80;;;;;;5057194;28;20469;-44
2022/11/11 13:01:03;;;;;;;1.83;1.57;;;38.00;29.40;;;;;;5071854;28;20893;-44
2022/11/11 13:03:50;;;;;;;2.30;1.63;;;37.00;29.90;;;;;;5059877;28;20415;-43
2022/11/11 13:06:50;;;;;;;2.53;1.70;;;36.40;30.40;;;;;;5059698;28;20440;-43
2022/11/11 13:09:38;;;;;;;1.73;1.50;;;36.10;30.80;;;;;;5077618;28;20443;-43
2022/11/11 13:12:39;;;;;;;2.20;1.63;;;36.40;30.80;;;;;;5086901;28;20454;-45
2022/11/11 13:15:23;;;;;;;1.47;1.23;;;36.90;30.40;;;;;;5026114;28;20461;-43
2022/11/11 13:17:49;;;;;;;2.33;1.70;;;37.00;30.00;;;;;;5094829;28;20393;-43
2022/11/11 13:20:41;;;;;;;2.83;1.30;;;36.60;30.30;;;;;;5097622;28;20767;-43
2022/11/11 13:23:11;;;;;;;2.23;1.40;;;36.10;30.60;;;;;;5081840;28;20418;-45
2022/11/11 13:25:40;;;;;;;2.17;1.40;;;35.20;30.60;;;;;;5097505;28;20395;-45
2022/11/11 13:28:20;;;;;;;1.80;1.43;;;34.50;31.40;;;;;;5095922;28;20507;-42
2022/11/11 13:30:57;;;;;;;2.33;1.57;;;33.90;32.10;;;;;;5078443;28;20514;-43
2022/11/11 13:33:39;;;;;;;1.93;1.53;;;33.10;32.60;;;;;;5092785;28;20431;-42
2022/11/11 13:36:08;;;;;;;2.73;1.50;;;32.40;32.10;;;;;;5079067;28;20566;-42
2022/11/11 13:38:49;;;;;;;1.67;1.37;;;31.70;33.00;;;;;;5062489;28;20439;-43
2022/11/11 13:41:23;;;;;;;2.50;1.40;;;31.30;33.70;;;;;;5076029;28;20483;-44
2022/11/11 13:43:51;;;;;;;1.80;1.30;;;31.20;34.40;;;;;;5078612;28;20434;-42
2022/11/11 13:46:37;;;;;;;2.20;1.30;;;31.20;34.80;;;;;;5061706;28;20754;-44
2022/11/11 13:49:06;;;;;;;2.13;1.27;;;31.40;34.90;;;;;;5079829;28;20434;-43
2022/11/11 13:51:40;;;;;;;1.90;1.70;;;31.70;34.60;;;;;;5097663;28;20602;-43
2022/11/11 13:54:26;;;;;;;2.17;1.40;;;32.30;34.30;;;;;;5075595;28;20476;-43
2022/11/11 13:56:53;;;;;;;2.60;1.83;;;32.80;33.90;;;;;;5058104;28;20602;-45
2022/11/11 13:59:22;;;;;;;2.30;1.47;;;33.30;33.40;;;;;;5076532;28;20473;-45
2022/11/11 14:02:12;;;;;;;3.70;1.73;;;33.40;32.70;;;;;;5074998;28;20572;-46
2022/11/11 14:05:09;;;;;;;2.10;1.53;;;33.50;32.90;;;;;;5055889;28;20525;-46
2022/11/11 14:07:45;;;;;;;2.03;1.37;;;33.30;33.10;;;;;;5075528;28;20530;-46
2022/11/11 14:10:17;;;;;;;2.30;1.47;;;32.80;33.10;;;;;;5075488;28;20451;-43
2022/11/11 14:12:52;;;;;;;1.63;1.40;;;32.30;33.20;;;;;;5076507;28;20415;-43
2022/11/11 14:15:36;;;;;;;3.30;2.10;;;31.90;33.60;;;;;;5073752;28;20449;-42
2022/11/11 14:18:25;;;;;;;3.40;1.83;;;31.50;33.60;;;;;;5071421;28;20432;-45
2022/11/11 14:20:52;;;;;;;1.83;1.50;;;31.20;34.00;;;;;;5075020;28;20424;-41
2022/11/11 14:23:17;;;;;;;5.63;1.40;;;31.40;34.50;;;;;;5073670;28;20390;-43
2022/11/11 14:25:48;;;;;;;1.93;1.67;;;31.50;34.90;;;;;;5074569;28;20468;-44
2022/11/11 14:28:28;;;;;;;2.93;1.70;;;31.70;34.80;;;;;;5055235;28;20219;-48
2022/11/11 14:30:58;;;;;;;2.83;1.57;;;31.60;34.10;;;;;;5073579;28;20782;-44